createdAt,value
2022-11-24T00:01:29.419Z,87.72
2022-11-24T00:04:05.522Z,87.50
2022-11-24T00:06:35.700Z,87.77
2022-11-24T00:09:04.399Z,87.43
2022-11-24T00:11:35.056Z,87.81
2022-11-24T00:14:03.249Z,87.80
2022-11-24T00:16:33.300Z,87.67
2022-11-24T00:19:03.190Z,87.80
2022-11-24T00:21:32.026Z,87.58
2022-11-24T00:23:59.741Z,87.83
2022-11-24T00:26:30.713Z,87.74
2022-11-24T00:29:01.063Z,87.50
2022-11-24T00:31:34.198Z,87.66
2022-11-24T00:34:04.815Z,88.10
2022-11-24T00:36:34.738Z,87.93
2022-11-24T00:39:22.044Z,87.59
2022-11-24T00:41:49.377Z,87.85
2022-11-24T00:44:16.475Z,87.70
2022-11-24T00:46:43.796Z,87.88
2022-11-24T00:49:10.967Z,87.78
2022-11-24T00:51:39.072Z,87.64
2022-11-24T00:54:06.710Z,87.64
2022-11-24T00:56:34.894Z,87.74
2022-11-24T00:59:02.166Z,87.50
2022-11-24T01:01:31.271Z,87.46
2022-11-24T01:04:01.950Z,87.33
2022-11-24T01:06:29.760Z,87.39
2022-11-24T01:08:57.428Z,87.56
2022-11-24T01:11:53.600Z,87.61
2022-11-24T01:14:22.084Z,87.59
2022-11-24T01:16:49.400Z,87.57
2022-11-24T01:19:16.356Z,87.50
2022-11-24T01:21:43.318Z,87.56
2022-11-24T01:24:10.793Z,87.56
2022-11-24T01:26:37.996Z,87.34
2022-11-24T01:29:04.971Z,87.52
2022-11-24T01:31:32.971Z,87.46
2022-11-24T01:33:59.964Z,87.42
2022-11-24T01:36:27.012Z,87.58
2022-11-24T01:38:53.983Z,87.27
2022-11-24T01:41:22.801Z,87.49
2022-11-24T01:43:50.360Z,87.23
2022-11-24T01:46:24.625Z,87.54
2022-11-24T01:49:12.224Z,87.07
2022-11-24T01:51:45.996Z,87.18
2022-11-24T01:54:22.937Z,87.32
2022-11-24T01:56:51.499Z,87.21
2022-11-24T01:59:18.986Z,87.19
2022-11-24T02:02:27.404Z,87.31
2022-11-24T02:04:54.597Z,87.09
2022-11-24T02:07:21.569Z,87.46
2022-11-24T02:09:54.379Z,87.11
2022-11-24T02:12:22.684Z,87.38
2022-11-24T02:14:49.798Z,87.50
2022-11-24T02:17:16.729Z,87.09
2022-11-24T02:19:50.330Z,87.13
2022-11-24T02:22:46.036Z,86.88
2022-11-24T02:25:40.838Z,86.92
2022-11-24T02:28:10.744Z,86.88
2022-11-24T02:30:37.722Z,87.33
2022-11-24T02:33:04.661Z,86.90
2022-11-24T02:35:31.803Z,86.78
2022-11-24T02:37:58.773Z,86.67
2022-11-24T02:40:27.085Z,86.76
2022-11-24T02:42:55.738Z,86.93
2022-11-24T02:45:23.075Z,86.63
2022-11-24T02:47:50.015Z,86.99
2022-11-24T02:50:29.031Z,86.88
2022-11-24T02:52:55.968Z,86.83
2022-11-24T02:55:23.772Z,86.77
2022-11-24T02:57:51.013Z,86.91
2022-11-24T03:00:18.629Z,86.67
2022-11-24T03:02:45.740Z,86.76
2022-11-24T03:05:12.816Z,86.67
2022-11-24T03:07:39.857Z,86.68
2022-11-24T03:10:07.199Z,86.54
2022-11-24T03:12:34.150Z,86.37
2022-11-24T03:15:01.163Z,86.46
2022-11-24T03:17:28.118Z,86.44
2022-11-24T03:19:56.436Z,86.67
2022-11-24T03:22:25.971Z,86.54
2022-11-24T03:24:53.429Z,86.38
2022-11-24T03:27:21.109Z,86.50
2022-11-24T03:29:48.084Z,86.44
2022-11-24T03:32:15.038Z,86.67
2022-11-24T03:34:42.011Z,86.67
2022-11-24T03:37:08.929Z,86.44
2022-11-24T03:39:35.904Z,86.57
2022-11-24T03:42:02.877Z,86.65
2022-11-24T03:44:30.248Z,86.70
2022-11-24T03:46:57.229Z,86.41
2022-11-24T03:49:24.243Z,86.56
2022-11-24T03:51:51.400Z,86.59
2022-11-24T03:54:18.389Z,86.51
2022-11-24T03:56:45.349Z,86.76
2022-11-24T03:59:12.381Z,86.50
2022-11-24T04:01:39.413Z,86.28
2022-11-24T04:04:06.447Z,86.58
2022-11-24T04:06:33.493Z,86.58
2022-11-24T04:09:00.748Z,86.77
2022-11-24T04:11:46.396Z,86.46
2022-11-24T04:14:13.875Z,86.36
2022-11-24T04:16:41.093Z,86.31
2022-11-24T04:19:08.023Z,86.31
2022-11-24T04:21:35.014Z,86.41
2022-11-24T04:24:01.964Z,86.32
2022-11-24T04:26:28.931Z,86.29
2022-11-24T04:28:55.860Z,86.22
2022-11-24T04:31:22.887Z,86.13
2022-11-24T04:33:49.928Z,85.93
2022-11-24T04:36:16.859Z,86.25
2022-11-24T04:39:19.806Z,86.17
2022-11-24T04:41:31.081Z,86.21
2022-11-24T04:43:58.014Z,86.30
2022-11-24T04:46:25.017Z,86.18
2022-11-24T04:48:51.994Z,86.21
2022-11-24T04:51:18.955Z,86.01
2022-11-24T04:53:45.941Z,86.35
2022-11-24T04:56:12.943Z,86.15
2022-11-24T04:58:39.870Z,86.36
2022-11-24T05:01:08.485Z,86.26
2022-11-24T05:03:36.663Z,86.06
2022-11-24T05:06:03.827Z,86.13
2022-11-24T05:08:30.705Z,86.24
2022-11-24T05:10:57.659Z,86.00
2022-11-24T05:13:24.584Z,86.13
2022-11-24T05:15:51.527Z,86.16
2022-11-24T05:18:18.574Z,85.75
2022-11-24T05:20:45.608Z,86.23
2022-11-24T05:23:12.671Z,85.92
2022-11-24T05:25:41.364Z,86.12
2022-11-24T05:28:10.647Z,86.18
2022-11-24T05:30:39.161Z,86.00
2022-11-24T05:33:09.656Z,86.05
2022-11-24T05:35:36.670Z,85.98
2022-11-24T05:38:04.256Z,85.99
2022-11-24T05:40:31.657Z,85.81
2022-11-24T05:42:58.663Z,86.26
2022-11-24T05:45:25.658Z,86.01
2022-11-24T05:47:53.327Z,85.91
2022-11-24T05:50:21.817Z,86.35
2022-11-24T05:52:49.720Z,85.97
2022-11-24T05:55:16.730Z,86.19
2022-11-24T05:57:44.050Z,86.05
2022-11-24T06:00:11.458Z,86.09
2022-11-24T06:02:38.464Z,85.94
2022-11-24T06:05:05.499Z,86.15
2022-11-24T06:09:59.880Z,85.90
2022-11-24T06:12:26.779Z,85.97
2022-11-24T06:14:53.740Z,86.10
2022-11-24T06:17:21.093Z,86.01
2022-11-24T06:19:50.565Z,85.58
2022-11-24T06:22:19.685Z,85.72
2022-11-24T06:24:47.257Z,85.81
2022-11-24T06:27:14.487Z,85.97
2022-11-24T06:29:41.388Z,85.96
2022-11-24T06:32:08.396Z,85.92
2022-11-24T06:34:35.823Z,85.85
2022-11-24T06:37:03.000Z,85.87
2022-11-24T06:39:30.077Z,86.27
2022-11-24T06:41:57.014Z,86.20
2022-11-24T06:44:23.993Z,85.93
2022-11-24T06:46:53.855Z,86.17
2022-11-24T06:49:21.219Z,86.32
2022-11-24T06:51:48.178Z,85.93
2022-11-24T06:54:17.190Z,85.79
2022-11-24T06:57:45.107Z,86.01
2022-11-24T07:01:14.986Z,85.70
2022-11-24T07:03:43.598Z,85.58
2022-11-24T07:06:10.508Z,85.90
2022-11-24T07:08:37.477Z,85.98
2022-11-24T07:11:08.581Z,85.95
2022-11-24T07:13:35.717Z,85.89
2022-11-24T07:16:21.063Z,85.63
2022-11-24T07:18:51.278Z,85.79
2022-11-24T07:21:19.894Z,85.80
2022-11-24T07:23:55.414Z,85.44
2022-11-24T07:26:23.291Z,85.38
2022-11-24T07:28:53.629Z,85.65
2022-11-24T07:31:25.131Z,85.55
2022-11-24T07:33:55.125Z,85.36
2022-11-24T07:36:32.666Z,85.66
2022-11-24T07:39:00.875Z,85.82
2022-11-24T07:41:29.070Z,85.70
2022-11-24T07:43:56.865Z,85.75
2022-11-24T07:46:23.954Z,85.41
2022-11-24T07:48:51.556Z,85.44
2022-11-24T07:51:18.622Z,85.15
2022-11-24T07:53:46.859Z,85.65
2022-11-24T07:56:16.768Z,85.82
2022-11-24T07:58:49.767Z,85.85
2022-11-24T08:01:20.223Z,85.64
2022-11-24T08:03:47.371Z,86.07
2022-11-24T08:06:38.440Z,85.86
2022-11-24T08:09:02.885Z,85.56
2022-11-24T08:11:31.608Z,85.90
2022-11-24T08:13:58.877Z,85.55
2022-11-24T08:16:25.858Z,85.56
2022-11-24T08:18:54.130Z,85.84
2022-11-24T08:21:23.345Z,85.69
2022-11-24T08:23:59.278Z,85.70
2022-11-24T08:26:26.366Z,85.84
2022-11-24T08:28:57.795Z,85.91
2022-11-24T08:31:27.400Z,85.97
2022-11-24T08:33:56.134Z,86.16
2022-11-24T08:36:23.276Z,85.84
2022-11-24T08:39:01.712Z,85.95
2022-11-24T08:41:31.488Z,86.15
2022-11-24T08:43:58.794Z,86.10
2022-11-24T08:46:25.833Z,85.95
2022-11-24T08:48:54.337Z,86.02
2022-11-24T08:51:25.243Z,86.10
2022-11-24T08:54:00.425Z,85.92
2022-11-24T08:56:30.813Z,85.53
2022-11-24T08:59:00.808Z,85.95
2022-11-24T09:01:28.053Z,86.00
2022-11-24T09:03:55.379Z,86.15
2022-11-24T09:06:24.997Z,86.02
2022-11-24T09:08:53.806Z,86.38
2022-11-24T09:11:24.903Z,86.45
2022-11-24T09:13:51.983Z,86.27
2022-11-24T09:16:21.212Z,86.51
2022-11-24T09:18:48.289Z,86.28
2022-11-24T09:21:18.310Z,86.01
2022-11-24T09:23:49.718Z,85.85
2022-11-24T09:26:32.836Z,85.58
2022-11-24T09:29:08.667Z,85.88
2022-11-24T09:31:41.381Z,86.13
2022-11-24T09:34:19.899Z,85.64
2022-11-24T09:37:06.933Z,85.74
2022-11-24T09:39:33.954Z,85.31
2022-11-24T09:42:08.136Z,85.65
2022-11-24T09:44:41.140Z,85.85
2022-11-24T09:47:37.070Z,85.98
2022-11-24T09:50:15.028Z,85.55
2022-11-24T09:53:06.406Z,85.69
2022-11-24T09:55:41.836Z,85.81
2022-11-24T09:58:27.627Z,85.59
2022-11-24T10:00:54.638Z,85.29
2022-11-24T10:03:33.232Z,85.27
2022-11-24T10:06:01.140Z,85.24
2022-11-24T10:08:45.737Z,85.39
2022-11-24T10:11:19.474Z,85.21
2022-11-24T10:14:09.370Z,85.47
2022-11-24T10:17:00.296Z,85.43
2022-11-24T10:20:04.172Z,85.34
2022-11-24T10:23:02.190Z,85.30
2022-11-24T10:25:50.450Z,85.12
2022-11-24T10:28:18.787Z,85.01
2022-11-24T10:30:46.398Z,84.73
2022-11-24T10:33:28.721Z,84.76
2022-11-24T10:36:16.008Z,84.76
2022-11-24T10:38:57.066Z,84.74
2022-11-24T10:41:37.143Z,84.89
2022-11-24T10:44:06.550Z,84.85
2022-11-24T10:46:39.191Z,84.75
2022-11-24T10:49:06.643Z,84.34
2022-11-24T10:51:44.574Z,84.29
2022-11-24T10:54:19.921Z,84.10
2022-11-24T10:56:48.004Z,83.92
2022-11-24T10:59:24.127Z,84.47
2022-11-24T11:01:52.133Z,84.03
2022-11-24T11:04:22.387Z,84.13
2022-11-24T11:06:51.436Z,84.19
2022-11-24T11:09:22.270Z,83.78
2022-11-24T11:11:49.846Z,83.49
2022-11-24T11:14:31.582Z,84.00
2022-11-24T11:16:58.906Z,83.79
2022-11-24T11:19:49.381Z,83.80
2022-11-24T11:22:22.995Z,84.04
2022-11-24T11:24:49.974Z,84.02
2022-11-24T11:27:24.727Z,83.97
2022-11-24T11:35:29.125Z,83.51
2022-11-24T11:37:59.153Z,83.65
2022-11-24T11:40:28.097Z,83.57
2022-11-24T11:43:03.637Z,83.46
2022-11-24T11:45:38.463Z,83.57
2022-11-24T11:48:28.209Z,83.28
2022-11-24T11:51:22.777Z,83.19
2022-11-24T11:53:53.314Z,83.48
2022-11-24T11:56:27.171Z,83.13
2022-11-24T11:59:31.715Z,83.18
2022-11-24T12:02:23.662Z,83.16
2022-11-24T12:04:58.805Z,83.09
2022-11-24T12:07:57.172Z,83.44
2022-11-24T12:10:44.401Z,83.28
2022-11-24T12:13:30.098Z,82.85
2022-11-24T12:16:00.301Z,82.53
2022-11-24T12:18:59.023Z,83.04
2022-11-24T12:21:35.125Z,82.92
2022-11-24T12:24:14.120Z,82.89
2022-11-24T12:27:10.254Z,82.66
2022-11-24T12:29:59.075Z,82.98
2022-11-24T12:32:35.092Z,82.89
2022-11-24T12:35:30.486Z,82.90
2022-11-24T12:38:25.170Z,82.76
2022-11-24T12:41:41.293Z,82.67
2022-11-24T12:44:36.209Z,82.66
2022-11-24T12:47:27.017Z,82.56
2022-11-24T12:50:07.360Z,82.29
2022-11-24T12:52:37.861Z,82.06
2022-11-24T12:55:05.262Z,81.95
2022-11-24T12:57:56.218Z,82.12
2022-11-24T13:00:32.165Z,82.03
2022-11-24T13:03:27.177Z,82.10
2022-11-24T13:05:59.048Z,82.23
2022-11-24T13:08:29.120Z,81.99
2022-11-24T13:11:19.235Z,81.91
2022-11-24T13:14:06.411Z,81.92
2022-11-24T13:16:44.316Z,81.13
2022-11-24T13:19:29.617Z,81.21
2022-11-24T13:22:06.568Z,81.55
2022-11-24T13:24:39.461Z,81.65
2022-11-24T13:27:15.985Z,81.48
2022-11-24T13:29:47.274Z,81.52
2022-11-24T13:32:22.582Z,81.54
2022-11-24T13:34:57.566Z,81.27
2022-11-24T13:37:34.269Z,81.40
2022-11-24T13:40:11.526Z,81.06
2022-11-24T13:42:58.925Z,81.16
2022-11-24T13:45:49.857Z,81.10
2022-11-24T13:48:20.375Z,81.25
2022-11-24T13:50:55.776Z,81.17
2022-11-24T13:53:36.450Z,80.72
2022-11-24T13:56:20.073Z,80.84
2022-11-24T13:59:06.343Z,80.62
2022-11-24T14:01:34.897Z,80.50
2022-11-24T14:04:30.514Z,80.57
2022-11-24T14:07:07.284Z,80.67
2022-11-24T14:09:36.656Z,80.72
2022-11-24T14:12:08.238Z,80.69
2022-11-24T14:14:37.564Z,80.16
2022-11-24T14:17:27.155Z,80.80
2022-11-24T14:19:56.017Z,80.53
2022-11-24T14:22:35.185Z,80.41
2022-11-24T14:25:06.242Z,80.23
2022-11-24T14:27:36.255Z,80.23
2022-11-24T14:30:15.542Z,80.64
2022-11-24T14:33:00.430Z,80.49
2022-11-24T14:35:32.154Z,79.98
2022-11-24T14:38:03.497Z,80.54
2022-11-24T14:40:47.394Z,80.53
2022-11-24T14:43:23.728Z,80.54
2022-11-24T14:45:55.771Z,80.41
2022-11-24T14:48:31.793Z,79.86
2022-11-24T14:51:32.006Z,80.52
2022-11-24T14:54:01.098Z,80.55
2022-11-24T14:56:40.096Z,80.65
2022-11-24T14:59:30.802Z,80.62
2022-11-24T15:02:00.059Z,80.34
2022-11-24T15:07:29.268Z,80.85
2022-11-24T15:09:58.265Z,80.69
2022-11-24T15:12:41.325Z,80.75
2022-11-24T15:15:14.109Z,80.88
2022-11-24T15:17:47.353Z,80.94
2022-11-24T15:20:32.179Z,80.71
2022-11-24T15:23:17.789Z,80.98
2022-11-24T15:25:44.780Z,80.76
2022-11-24T15:28:12.119Z,81.06
2022-11-24T15:30:39.079Z,80.98
2022-11-24T15:33:16.861Z,80.94
2022-11-24T15:35:44.529Z,81.07
2022-11-24T15:38:11.684Z,80.88
2022-11-24T15:40:39.205Z,81.23
2022-11-24T15:43:16.994Z,81.06
2022-11-24T15:45:44.245Z,81.04
2022-11-24T15:48:16.301Z,80.77
2022-11-24T15:50:45.639Z,80.94
2022-11-24T15:53:48.653Z,81.27
2022-11-24T15:56:23.476Z,81.13
2022-11-24T15:58:51.097Z,81.49
2022-11-24T16:01:18.205Z,81.40
2022-11-24T16:03:47.505Z,81.29
2022-11-24T16:06:23.697Z,81.34
2022-11-24T16:08:52.358Z,81.44
2022-11-24T16:11:21.302Z,81.49
2022-11-24T16:13:52.447Z,81.53
2022-11-24T16:16:21.544Z,81.50
2022-11-24T16:18:48.517Z,81.48
2022-11-24T16:21:15.581Z,81.44
2022-11-24T16:23:42.976Z,81.49
2022-11-24T16:26:09.891Z,81.48
2022-11-24T16:28:36.836Z,81.58
2022-11-24T16:31:04.095Z,81.45
2022-11-24T16:33:34.976Z,81.50
2022-11-24T16:36:01.941Z,81.60
2022-11-24T16:38:30.281Z,81.54
2022-11-24T16:40:57.248Z,81.71
2022-11-24T16:43:27.344Z,81.89
2022-11-24T16:46:17.611Z,81.70
2022-11-24T16:48:45.624Z,81.84
2022-11-24T16:51:13.047Z,81.96
2022-11-24T16:53:40.482Z,82.08
2022-11-24T16:56:08.430Z,82.00
2022-11-24T16:58:39.947Z,81.75
2022-11-24T17:01:07.967Z,82.09
2022-11-24T17:03:37.469Z,82.14
2022-11-24T17:06:06.483Z,82.15
2022-11-24T17:08:37.968Z,82.07
2022-11-24T17:11:21.041Z,82.06
2022-11-24T17:13:49.378Z,82.03
2022-11-24T17:16:21.120Z,82.01
2022-11-24T17:18:48.166Z,82.20
2022-11-24T17:21:17.231Z,82.26
2022-11-24T17:23:44.454Z,82.08
2022-11-24T17:26:14.131Z,82.01
2022-11-24T17:28:41.476Z,82.12
2022-11-24T17:31:24.436Z,82.27
2022-11-24T17:33:53.048Z,82.09
2022-11-24T17:36:20.681Z,82.36
2022-11-24T17:38:49.780Z,82.43
2022-11-24T17:41:17.503Z,82.35
2022-11-24T17:43:45.765Z,82.63
2022-11-24T17:46:12.801Z,82.44
2022-11-24T17:48:39.759Z,82.44
2022-11-24T17:51:08.296Z,82.42
2022-11-24T17:53:39.281Z,82.60
2022-11-24T17:56:12.676Z,82.49
2022-11-24T17:58:42.871Z,82.52
2022-11-24T18:01:11.281Z,82.50
2022-11-24T18:03:41.721Z,82.86
2022-11-24T18:06:16.384Z,82.71
2022-11-24T18:08:45.311Z,82.76
2022-11-24T18:11:17.234Z,82.56
2022-11-24T18:16:32.503Z,82.57
2022-11-24T18:19:10.164Z,82.76
2022-11-24T18:21:39.263Z,82.86
2022-11-24T18:24:07.355Z,82.82
2022-11-24T18:26:34.298Z,82.89
2022-11-24T18:29:01.186Z,82.93
2022-11-24T18:31:29.826Z,82.95
2022-11-24T18:33:56.836Z,83.01
2022-11-24T18:36:29.926Z,83.05
2022-11-24T18:39:00.842Z,83.08
2022-11-24T18:41:27.737Z,82.99
2022-11-24T18:43:54.643Z,83.02
2022-11-24T18:46:21.773Z,83.00
2022-11-24T18:48:49.653Z,82.99
2022-11-24T18:51:16.619Z,82.66
2022-11-24T18:53:45.157Z,82.90
2022-11-24T18:56:16.547Z,82.71
2022-11-24T18:58:44.048Z,82.83
2022-11-24T19:01:19.786Z,82.79
2022-11-24T19:03:51.893Z,83.01
2022-11-24T19:06:24.488Z,82.70
2022-11-24T19:08:53.727Z,82.74
2022-11-24T19:11:25.516Z,82.81
2022-11-24T19:13:52.431Z,82.71
2022-11-24T19:16:20.126Z,83.01
2022-11-24T19:18:53.631Z,82.77
2022-11-24T19:21:21.602Z,82.94
2022-11-24T19:23:48.664Z,82.96
2022-11-24T19:26:15.583Z,82.86
2022-11-24T19:28:42.747Z,82.99
2022-11-24T19:31:12.758Z,83.02
2022-11-24T19:33:40.197Z,82.99
2022-11-24T19:36:18.239Z,82.71
2022-11-24T19:38:57.271Z,82.68
2022-11-24T19:41:29.884Z,82.63
2022-11-24T19:43:58.032Z,82.78
2022-11-24T19:46:27.284Z,82.93
2022-11-24T19:48:55.514Z,82.81
2022-11-24T19:51:25.449Z,82.79
2022-11-24T19:53:55.641Z,82.90
2022-11-24T19:56:27.259Z,82.82
2022-11-24T19:58:55.204Z,82.63
2022-11-24T20:01:27.571Z,82.61
2022-11-24T20:03:59.059Z,82.59
2022-11-24T20:06:32.682Z,82.51
2022-11-24T20:09:00.611Z,82.73
2022-11-24T20:11:28.228Z,82.63
2022-11-24T20:13:55.331Z,82.32
2022-11-24T20:16:26.604Z,82.35
2022-11-24T20:18:58.783Z,82.32
2022-11-24T20:21:33.727Z,82.54
2022-11-24T20:24:07.887Z,82.20
2022-11-24T20:26:39.435Z,82.17
2022-11-24T20:29:06.845Z,82.33
2022-11-24T20:31:35.457Z,82.47
2022-11-24T20:34:04.073Z,82.31
2022-11-24T20:36:32.137Z,81.92
2022-11-24T20:39:00.618Z,81.81
2022-11-24T20:41:32.250Z,82.04
2022-11-24T20:44:05.009Z,81.93
2022-11-24T20:46:33.630Z,81.95
2022-11-24T20:49:00.753Z,81.96
2022-11-24T20:51:30.118Z,81.94
2022-11-24T20:54:00.232Z,81.69
2022-11-24T20:56:29.072Z,81.86
2022-11-24T20:58:56.285Z,81.76
2022-11-24T21:01:25.352Z,81.60
2022-11-24T21:03:54.634Z,81.53
2022-11-24T21:06:21.935Z,81.43
2022-11-24T21:08:51.814Z,81.70
2022-11-24T21:11:19.187Z,81.49
2022-11-24T21:13:47.550Z,81.41
2022-11-24T21:16:40.882Z,81.53
2022-11-24T21:19:11.380Z,81.44
2022-11-24T21:21:38.680Z,81.26
2022-11-24T21:24:16.308Z,81.10
2022-11-24T21:26:44.399Z,81.53
2022-11-24T21:29:11.742Z,81.05
2022-11-24T21:31:38.821Z,81.26
2022-11-24T21:34:06.737Z,81.19
2022-11-24T21:36:35.165Z,80.79
2022-11-24T21:39:02.616Z,81.24
2022-11-24T21:41:31.533Z,81.01
2022-11-24T21:43:58.763Z,80.88
2022-11-24T21:46:25.680Z,80.90
2022-11-24T21:48:52.561Z,81.10
2022-11-24T21:51:20.960Z,80.88
2022-11-24T21:53:47.996Z,80.81
2022-11-24T21:56:20.897Z,80.88
2022-11-24T21:58:58.004Z,80.90
2022-11-24T22:01:27.382Z,80.77
2022-11-24T22:03:54.436Z,81.06
2022-11-24T22:06:21.504Z,80.75
2022-11-24T22:08:48.851Z,80.96
2022-11-24T22:11:18.490Z,80.95
2022-11-24T22:13:45.685Z,80.82
2022-11-24T22:16:14.619Z,80.76
2022-11-24T22:18:43.182Z,80.58
2022-11-24T22:21:23.814Z,81.04
2022-11-24T22:23:52.572Z,80.71
2022-11-24T22:26:21.292Z,80.77
2022-11-24T22:28:48.242Z,80.82
2022-11-24T22:31:23.052Z,81.07
2022-11-24T22:33:53.275Z,80.95
2022-11-24T22:36:21.650Z,80.95
2022-11-24T22:38:56.203Z,81.02
2022-11-24T22:41:23.502Z,81.19
2022-11-24T22:43:51.201Z,81.06
2022-11-24T22:46:22.772Z,81.14
2022-11-24T22:48:52.956Z,81.14
2022-11-24T22:51:27.199Z,81.23
2022-11-24T22:53:58.747Z,81.24
2022-11-24T22:56:27.920Z,81.42
2022-11-24T22:58:54.877Z,81.35
2022-11-24T23:01:26.360Z,81.38
2022-11-24T23:03:54.514Z,81.48
2022-11-24T23:06:23.782Z,81.42
2022-11-24T23:08:51.570Z,81.56
2022-11-24T23:11:36.261Z,81.40
2022-11-24T23:14:04.591Z,81.32
2022-11-24T23:16:31.547Z,81.55
2022-11-24T23:18:58.803Z,81.60
2022-11-24T23:21:30.684Z,81.43
2022-11-24T23:23:59.834Z,81.49
2022-11-24T23:26:34.855Z,81.51
2022-11-24T23:29:02.047Z,81.37
2022-11-24T23:31:29.330Z,81.08
2022-11-24T23:34:01.353Z,81.44
2022-11-24T23:36:28.714Z,81.30
2022-11-24T23:38:55.683Z,81.11
2022-11-24T23:41:24.565Z,81.35
2022-11-24T23:43:52.410Z,81.12
2022-11-24T23:46:21.757Z,81.18
2022-11-24T23:48:51.680Z,81.31
2022-11-24T23:51:23.744Z,81.48
2022-11-24T23:53:51.376Z,81.28
2022-11-24T23:56:26.474Z,81.23
2022-11-24T23:58:53.374Z,81.33
